To NAV CANADA Home Page Login to a new session Search on AWWS site Feedback and Comments Disclaimer Vers la page française équivalente Tips FAQ What's new on the site To the Forecasts and Observations / NOTAM section To "File a Flight Plan" website Publications and other links Update of the User's profile FIC Telephone Numbers My Weather Data Folder Route Weather Data Regional Weather Data Local Weather Data To the Forecasts and Observations / NOTAM section
Request Generated 09/05/2015 at 03:41:11 UTC . Weather information available at that time is displayed.

METAR/TAF

If you find any discrepancies between the coded METAR/TAF and the plain language METAR/TAF please use the coded METAR/TAF. LWIS bulletins are not decoded in plain language.

VANCOUVER/VANCOUVER INTL/BC    

METAR CYVR 050300Z 31008KT 30SM FEW090 14/11 A2999 RMK AC1 SLP154=
METAR
LOCATION
CYVR - VANCOUVER/VANCOUVER INTL/BC
DATE - TIME
05 SEPTEMBER 2015 - 0300 UTC
WIND
310 TRUE @ 8  KNOTS
VISIBILITY
30 STAT.  MILES
RUNWAY VISUAL RANGE
WEATHER
CLOUDINESS
FEW CLOUDS (1/8 - 2/8) 9000  FT
TEMP / DEWPOINT
14 C / 11 C
ALTIMETER
29.99 IN HG
RECENT WEATHER
WIND SHEAR

METAR CYVR 050200Z 29010KT 30SM FEW090 16/10 A2998 RMK AC1 SLP153=
METAR
LOCATION
CYVR - VANCOUVER/VANCOUVER INTL/BC
DATE - TIME
05 SEPTEMBER 2015 - 0200 UTC
WIND
290 TRUE @ 10  KNOTS
VISIBILITY
30 STAT.  MILES
RUNWAY VISUAL RANGE
WEATHER
CLOUDINESS
FEW CLOUDS (1/8 - 2/8) 9000  FT
TEMP / DEWPOINT
16 C / 10 C
ALTIMETER
29.98 IN HG
RECENT WEATHER
WIND SHEAR

METAR CYVR 050100Z 29010KT 20SM FEW045 17/11 A2999 RMK CU1 TCU EMBD TR CS SLP154 DENSITY ALT 100FT=
METAR
LOCATION
CYVR - VANCOUVER/VANCOUVER INTL/BC
DATE - TIME
05 SEPTEMBER 2015 - 0100 UTC
WIND
290 TRUE @ 10  KNOTS
VISIBILITY
20 STAT.  MILES
RUNWAY VISUAL RANGE
WEATHER
CLOUDINESS
FEW CLOUDS (1/8 - 2/8) 4500  FT
TEMP / DEWPOINT
17 C / 11 C
ALTIMETER
29.99 IN HG
RECENT WEATHER
WIND SHEAR

TAF CYVR 050238Z 0503/0606 29010KT P6SM FEW040 BECMG 0506/0508 09006KT FM051200 09006KT P6SM FEW020 FEW080 BECMG 0519/0521 20008KT FM060000 20008KT P6SM SCT040 BKN200 RMK NXT FCST BY 050600Z=
TAF
LOCATION

CYVR - VANCOUVER/VANCOUVER INTL/BC
VALIDITY [UTC]
05 SEP - 0238 to
06 SEP - 0600
 
TIMES
[UTC]
WIND
[DEGREES TRUE]
VISIBILITY
[STAT. MILES]
WEATHER
CLOUDINESS
[FEET AGL]
 
05 SEP - 0300 to
05 SEP - 1200
290 @ 10 KNOTS
6+
NIL
4000 FEW
BECOMING
05 SEP - 0600 to
05 SEP - 0800
90 @ 6 KNOTS
 
 
 
 
05 SEP - 1200 to
06 SEP - 0000
90 @ 6 KNOTS
6+
NIL
2000 FEW
BECOMING
05 SEP - 1900 to
05 SEP - 2100
200 @ 8 KNOTS
 
 
 
 
06 SEP - 0000 to
06 SEP - 0600
200 @ 8 KNOTS
6+
NIL
4000 SCATTERED
20000 BROKEN
REMARKS
THE NEXT FORECAST WILL BE ISSUED BY 0600 UTC ON DAY 05


Your time UTC time
Weather data provided by Environment Canada and NAV CANADA